Time;durP1;ratioP1;P1;durP2;ratioP2;P2;SDS_P1;SDS_P2;PMS_P1;PMS_P2;Temp;Humidity;BMP_temperature;BMP_pressure;BME280_temperature;BME280_humidity;BME280_pressure;Samples;Min_cycle;Max_cycle;Signal;HPM_P1;HPM_P2
2022/03/03 00:00:49;;;;;;;;;;;21.80;22.60;;;;;;454057;261;1081;-75
2022/03/03 00:02:51;;;;;;;;;;;21.80;22.60;;;;;;454010;261;2209;-75
2022/03/03 00:04:52;;;;;;;;;;;21.80;22.60;;;;;;454144;261;987;-76
2022/03/03 00:06:54;;;;;;;;;;;21.90;22.60;;;;;;454031;261;1337;-76
2022/03/03 00:08:55;;;;;;;;;;;21.90;22.60;;;;;;454149;261;1037;-76
2022/03/03 00:10:56;;;;;;;;;;;21.90;22.50;;;;;;454015;261;1192;-76
2022/03/03 00:12:57;;;;;;;;;;;22.10;22.40;;;;;;454134;261;1203;-75
2022/03/03 00:14:59;;;;;;;;;;;22.00;22.40;;;;;;454071;261;1055;-75
2022/03/03 00:17:00;;;;;;;;;;;22.10;22.40;;;;;;454019;261;1199;-75
2022/03/03 00:19:01;;;;;;;;;;;22.00;22.50;;;;;;454061;261;1345;-75
2022/03/03 00:21:03;;;;;;;;;;;21.90;22.50;;;;;;454084;261;1161;-76
2022/03/03 00:23:05;;;;;;;;;;;22.00;22.50;;;;;;454078;261;2192;-75
2022/03/03 00:25:06;;;;;;;;;;;21.90;22.50;;;;;;454056;261;1094;-75
2022/03/03 00:27:07;;;;;;;;;;;21.90;22.50;;;;;;454023;261;1183;-75
2022/03/03 00:29:09;;;;;;;;;;;21.90;22.50;;;;;;454149;261;1119;-75
2022/03/03 00:31:10;;;;;;;;;;;21.90;22.60;;;;;;454100;261;1477;-75
2022/03/03 00:33:12;;;;;;;;;;;21.80;22.60;;;;;;454071;261;1160;-75
2022/03/03 00:35:13;;;;;;;;;;;21.90;22.50;;;;;;454195;261;1421;-76
2022/03/03 00:37:14;;;;;;;;;;;21.90;22.60;;;;;;454076;261;1136;-76
2022/03/03 00:39:15;;;;;;;;;;;21.90;22.50;;;;;;454115;261;975;-75
2022/03/03 00:41:18;;;;;;;;;;;22.00;22.50;;;;;;454028;261;1134;-75
2022/03/03 00:43:19;;;;;;;;;;;22.10;22.40;;;;;;454066;261;2188;-75
2022/03/03 00:45:20;;;;;;;;;;;22.10;22.40;;;;;;454119;263;1085;-75
2022/03/03 00:47:21;;;;;;;;;;;22.00;22.40;;;;;;454058;261;1162;-75
2022/03/03 00:49:23;;;;;;;;;;;22.00;22.50;;;;;;454146;261;991;-75
2022/03/03 00:51:24;;;;;;;;;;;22.00;22.50;;;;;;454019;261;1268;-76
2022/03/03 00:53:25;;;;;;;;;;;21.80;22.50;;;;;;454113;261;1178;-76
2022/03/03 00:55:27;;;;;;;;;;;21.90;22.50;;;;;;454062;261;1065;-76
2022/03/03 00:57:28;;;;;;;;;;;21.90;22.50;;;;;;454009;261;1227;-76
2022/03/03 00:59:29;;;;;;;;;;;22.00;22.40;;;;;;454117;261;1068;-76
2022/03/03 01:01:31;;;;;;;;;;;21.90;22.40;;;;;;454116;261;1330;-76
2022/03/03 01:03:32;;;;;;;;;;;21.90;22.50;;;;;;454103;261;2208;-75
2022/03/03 01:05:33;;;;;;;;;;;21.90;22.50;;;;;;454104;261;1157;-76
2022/03/03 01:07:35;;;;;;;;;;;21.80;22.50;;;;;;454055;261;1238;-75
2022/03/03 01:09:36;;;;;;;;;;;21.80;22.50;;;;;;454165;261;1059;-75
2022/03/03 01:11:37;;;;;;;;;;;21.90;22.50;;;;;;454042;261;1202;-76
2022/03/03 01:13:39;;;;;;;;;;;21.90;22.40;;;;;;454136;261;1141;-76
2022/03/03 01:15:40;;;;;;;;;;;22.00;22.40;;;;;;454109;261;1241;-76
2022/03/03 01:17:41;;;;;;;;;;;22.00;22.40;;;;;;454050;261;1000;-76
2022/03/03 01:19:43;;;;;;;;;;;22.00;22.40;;;;;;454140;261;1012;-76
2022/03/03 01:21:44;;;;;;;;;;;21.90;22.50;;;;;;454051;261;2208;-76
2022/03/03 01:23:45;;;;;;;;;;;21.90;22.40;;;;;;454083;261;1012;-75
2022/03/03 01:25:46;;;;;;;;;;;21.90;22.50;;;;;;454111;261;1506;-75
2022/03/03 01:27:48;;;;;;;;;;;21.80;22.50;;;;;;454071;261;1091;-75
2022/03/03 01:29:49;;;;;;;;;;;21.80;22.50;;;;;;454175;261;1125;-75
2022/03/03 01:31:51;;;;;;;;;;;21.80;22.50;;;;;;454245;261;1105;-75
2022/03/03 01:33:52;;;;;;;;;;;21.80;22.50;;;;;;454110;261;1266;-75
2022/03/03 01:35:53;;;;;;;;;;;21.90;22.50;;;;;;454050;261;1378;-76
2022/03/03 01:37:55;;;;;;;;;;;21.80;22.50;;;;;;454080;261;1213;-76
2022/03/03 01:39:56;;;;;;;;;;;21.80;22.40;;;;;;454124;261;1122;-76
2022/03/03 01:41:57;;;;;;;;;;;21.90;22.40;;;;;;454043;261;2196;-76
2022/03/03 01:43:59;;;;;;;;;;;21.90;22.40;;;;;;454151;261;1214;-76
2022/03/03 01:46:00;;;;;;;;;;;22.00;22.40;;;;;;454073;261;1080;-76
2022/03/03 01:48:01;;;;;;;;;;;21.90;22.30;;;;;;454051;261;1205;-76
2022/03/03 01:50:02;;;;;;;;;;;21.80;22.40;;;;;;454140;261;972;-76
2022/03/03 01:52:04;;;;;;;;;;;21.90;22.40;;;;;;454108;261;1162;-75
2022/03/03 01:54:05;;;;;;;;;;;21.90;22.40;;;;;;454209;261;1136;-76
2022/03/03 01:56:06;;;;;;;;;;;21.70;22.40;;;;;;454030;261;1241;-76
2022/03/03 01:58:08;;;;;;;;;;;21.60;22.50;;;;;;454037;261;1472;-76
2022/03/03 02:00:09;;;;;;;;;;;21.70;22.50;;;;;;454118;261;1180;-75
2022/03/03 02:02:11;;;;;;;;;;;21.80;22.50;;;;;;453990;261;2212;-75
2022/03/03 02:04:12;;;;;;;;;;;21.80;22.40;;;;;;454101;261;1258;-75
2022/03/03 02:06:13;;;;;;;;;;;21.80;22.40;;;;;;454048;261;1118;-76
2022/03/03 02:08:15;;;;;;;;;;;21.70;22.40;;;;;;454157;261;1180;-75
2022/03/03 02:10:16;;;;;;;;;;;21.90;22.30;;;;;;454128;261;1120;-76
2022/03/03 02:12:17;;;;;;;;;;;22.00;22.30;;;;;;454100;261;1220;-76
2022/03/03 02:14:19;;;;;;;;;;;22.10;22.20;;;;;;454071;261;1192;-75
2022/03/03 02:16:20;;;;;;;;;;;22.00;22.20;;;;;;454108;261;1187;-75
2022/03/03 02:18:21;;;;;;;;;;;21.90;22.30;;;;;;454160;261;1219;-75
2022/03/03 02:20:23;;;;;;;;;;;21.90;22.30;;;;;;454146;261;1032;-76
2022/03/03 02:22:24;;;;;;;;;;;21.90;22.30;;;;;;454079;261;2204;-76
2022/03/03 02:24:25;;;;;;;;;;;21.80;22.30;;;;;;454134;261;1105;-76
2022/03/03 02:26:27;;;;;;;;;;;21.80;22.30;;;;;;454100;261;1229;-76
2022/03/03 02:28:28;;;;;;;;;;;21.80;22.30;;;;;;454056;261;983;-76
2022/03/03 02:30:29;;;;;;;;;;;21.80;22.30;;;;;;454130;261;1203;-75
2022/03/03 02:32:31;;;;;;;;;;;21.80;22.30;;;;;;454084;261;1050;-76
2022/03/03 02:34:32;;;;;;;;;;;21.80;22.40;;;;;;454080;261;1063;-76
2022/03/03 02:36:33;;;;;;;;;;;21.80;22.30;;;;;;454046;261;1073;-76
2022/03/03 02:38:34;;;;;;;;;;;21.80;22.30;;;;;;454120;261;1045;-75
2022/03/03 02:40:36;;;;;;;;;;;22.00;22.30;;;;;;454130;261;1329;-75
2022/03/03 02:42:37;;;;;;;;;;;22.00;22.20;;;;;;454049;261;2193;-75
2022/03/03 02:44:38;;;;;;;;;;;22.10;22.10;;;;;;454054;261;1139;-76
2022/03/03 02:46:40;;;;;;;;;;;22.00;22.20;;;;;;454005;261;1130;-75
2022/03/03 02:48:41;;;;;;;;;;;22.00;22.20;;;;;;454073;261;1182;-75
2022/03/03 02:50:43;;;;;;;;;;;21.90;22.20;;;;;;454074;261;1175;-75
2022/03/03 02:52:44;;;;;;;;;;;21.80;22.30;;;;;;454091;261;1166;-75
2022/03/03 02:54:45;;;;;;;;;;;21.80;22.30;;;;;;454130;261;996;-75
2022/03/03 02:59:06;;;;;;;;;;;21.80;22.30;;;;;;454084;263;1031;-75
2022/03/03 03:01:07;;;;;;;;;;;21.80;22.30;;;;;;454010;261;1203;-75
2022/03/03 03:03:08;;;;;;;;;;;21.80;22.40;;;;;;454011;261;2212;-75
2022/03/03 03:05:10;;;;;;;;;;;21.60;22.30;;;;;;454058;261;1019;-75
2022/03/03 03:07:11;;;;;;;;;;;21.60;22.40;;;;;;454009;261;1216;-75
2022/03/03 03:09:12;;;;;;;;;;;21.70;22.40;;;;;;454123;261;1052;-75
2022/03/03 03:11:14;;;;;;;;;;;21.80;22.40;;;;;;454141;261;1254;-75
2022/03/03 03:13:15;;;;;;;;;;;21.80;22.30;;;;;;454027;261;1027;-76
2022/03/03 03:15:17;;;;;;;;;;;21.80;22.30;;;;;;454065;261;1150;-76
2022/03/03 03:17:18;;;;;;;;;;;21.80;22.30;;;;;;453939;261;1302;-75
2022/03/03 03:19:19;;;;;;;;;;;21.70;22.40;;;;;;454110;261;999;-75
2022/03/03 03:21:20;;;;;;;;;;;21.70;22.40;;;;;;454045;261;1667;-76
2022/03/03 03:23:22;;;;;;;;;;;21.70;22.30;;;;;;454083;261;2209;-76
2022/03/03 03:25:23;;;;;;;;;;;21.70;22.40;;;;;;454061;261;1080;-76
2022/03/03 03:27:24;;;;;;;;;;;21.80;22.30;;;;;;454115;261;1178;-76
2022/03/03 03:29:26;;;;;;;;;;;21.80;22.30;;;;;;454113;261;1044;-76
2022/03/03 03:31:27;;;;;;;;;;;21.90;22.30;;;;;;454106;261;1321;-76
2022/03/03 03:33:28;;;;;;;;;;;21.80;22.30;;;;;;454064;261;1052;-76
2022/03/03 03:35:30;;;;;;;;;;;21.70;22.30;;;;;;454090;261;1384;-75
2022/03/03 03:37:31;;;;;;;;;;;21.80;22.30;;;;;;454156;261;1249;-75
2022/03/03 03:39:32;;;;;;;;;;;21.70;22.30;;;;;;454092;261;1064;-75
2022/03/03 03:41:34;;;;;;;;;;;21.80;22.20;;;;;;454031;261;1304;-75
2022/03/03 03:43:35;;;;;;;;;;;21.90;22.10;;;;;;454012;261;2196;-76
2022/03/03 03:45:36;;;;;;;;;;;21.90;22.20;;;;;;454086;261;1162;-76
2022/03/03 03:47:38;;;;;;;;;;;21.80;22.20;;;;;;454004;261;1148;-76
2022/03/03 03:49:39;;;;;;;;;;;21.70;22.20;;;;;;454119;261;1086;-76
2022/03/03 03:51:40;;;;;;;;;;;21.70;22.30;;;;;;454052;261;1204;-76
2022/03/03 03:53:42;;;;;;;;;;;21.60;22.30;;;;;;454107;261;1102;-76
2022/03/03 03:55:43;;;;;;;;;;;21.60;22.30;;;;;;454037;261;1109;-76
2022/03/03 03:57:44;;;;;;;;;;;21.50;22.30;;;;;;454101;261;1250;-76
2022/03/03 03:59:46;;;;;;;;;;;21.40;22.40;;;;;;454134;261;1050;-75
2022/03/03 04:01:47;;;;;;;;;;;21.40;22.40;;;;;;454022;261;1244;-75
2022/03/03 04:03:48;;;;;;;;;;;21.40;22.40;;;;;;454029;261;2196;-75
2022/03/03 04:05:50;;;;;;;;;;;21.40;22.30;;;;;;454039;261;1168;-76
2022/03/03 04:07:51;;;;;;;;;;;21.40;22.40;;;;;;454006;261;1281;-76
2022/03/03 04:09:52;;;;;;;;;;;21.30;22.40;;;;;;454098;261;1093;-76
2022/03/03 04:11:54;;;;;;;;;;;21.30;22.40;;;;;;454083;261;1217;-76
2022/03/03 04:13:56;;;;;;;;;;;21.40;22.40;;;;;;454083;261;1221;-75
2022/03/03 04:15:56;;;;;;;;;;;21.40;22.40;;;;;;454078;261;1460;-75
2022/03/03 04:17:58;;;;;;;;;;;21.40;22.40;;;;;;454135;261;1094;-75
2022/03/03 04:19:59;;;;;;;;;;;21.40;22.30;;;;;;454128;261;1074;-75
2022/03/03 04:22:01;;;;;;;;;;;21.30;22.30;;;;;;454075;261;1478;-75
2022/03/03 04:24:02;;;;;;;;;;;21.30;22.40;;;;;;454058;261;2196;-75
2022/03/03 04:26:03;;;;;;;;;;;21.30;22.40;;;;;;454045;259;1197;-75
2022/03/03 04:28:04;;;;;;;;;;;21.30;22.50;;;;;;454059;261;1204;-75
2022/03/03 04:30:06;;;;;;;;;;;21.20;22.40;;;;;;454060;261;975;-75
2022/03/03 04:32:07;;;;;;;;;;;21.30;22.40;;;;;;453951;261;1286;-75
2022/03/03 04:34:08;;;;;;;;;;;21.30;22.40;;;;;;454123;261;1087;-75
2022/03/03 04:36:10;;;;;;;;;;;21.30;22.40;;;;;;454085;261;1155;-75
2022/03/03 04:38:11;;;;;;;;;;;21.20;22.40;;;;;;454129;261;1019;-75
2022/03/03 04:40:12;;;;;;;;;;;21.30;22.40;;;;;;454039;261;1079;-75
2022/03/03 04:42:14;;;;;;;;;;;21.30;22.40;;;;;;454027;261;1260;-75
2022/03/03 04:44:15;;;;;;;;;;;21.30;22.30;;;;;;454121;261;2130;-75
2022/03/03 04:46:16;;;;;;;;;;;21.40;22.40;;;;;;454101;261;1283;-75
2022/03/03 04:48:18;;;;;;;;;;;21.30;22.40;;;;;;454115;261;1133;-76
2022/03/03 04:50:19;;;;;;;;;;;21.30;22.40;;;;;;454117;261;1071;-76
2022/03/03 04:52:20;;;;;;;;;;;21.30;22.40;;;;;;454029;261;1188;-75
2022/03/03 04:54:22;;;;;;;;;;;21.30;22.40;;;;;;454098;261;1100;-75
2022/03/03 04:56:23;;;;;;;;;;;21.30;22.40;;;;;;454055;261;1192;-76
2022/03/03 04:58:24;;;;;;;;;;;21.30;22.40;;;;;;454057;261;1122;-75
2022/03/03 05:00:26;;;;;;;;;;;21.30;22.40;;;;;;454084;261;1055;-75
2022/03/03 05:02:27;;;;;;;;;;;21.30;22.40;;;;;;453963;261;1180;-75
2022/03/03 05:04:28;;;;;;;;;;;21.30;22.40;;;;;;454035;261;2134;-75
2022/03/03 05:06:30;;;;;;;;;;;21.30;22.30;;;;;;454005;261;1200;-75
2022/03/03 05:08:31;;;;;;;;;;;21.20;22.40;;;;;;454047;261;1070;-75
2022/03/03 05:10:32;;;;;;;;;;;21.30;22.30;;;;;;454058;261;1062;-76
2022/03/03 05:12:34;;;;;;;;;;;21.30;22.30;;;;;;454013;261;1184;-75
2022/03/03 05:14:35;;;;;;;;;;;21.30;22.30;;;;;;454042;261;967;-76
2022/03/03 05:16:36;;;;;;;;;;;21.20;22.30;;;;;;454062;261;1303;-76
2022/03/03 05:18:38;;;;;;;;;;;21.30;22.30;;;;;;453977;261;1283;-75
2022/03/03 05:20:39;;;;;;;;;;;21.30;22.30;;;;;;453946;261;1271;-75
2022/03/03 05:22:41;;;;;;;;;;;21.30;22.30;;;;;;454002;261;1075;-75
2022/03/03 05:24:42;;;;;;;;;;;21.40;22.20;;;;;;454032;261;2208;-75
2022/03/03 05:26:43;;;;;;;;;;;21.40;22.20;;;;;;454074;261;1445;-75
2022/03/03 05:28:44;;;;;;;;;;;21.40;22.20;;;;;;453997;261;1047;-75
2022/03/03 05:30:45;;;;;;;;;;;21.40;22.20;;;;;;453953;261;1412;-76
2022/03/03 05:32:49;;;;;;;;;;;21.50;22.10;;;;;;453943;261;1153;-76
2022/03/03 05:34:48;;;;;;;;;;;21.50;22.10;;;;;;453964;261;1442;-76
2022/03/03 05:36:49;;;;;;;;;;;21.50;22.20;;;;;;453801;261;1242;-76
2022/03/03 05:38:51;;;;;;;;;;;21.50;22.20;;;;;;453942;261;1353;-76
2022/03/03 05:40:53;;;;;;;;;;;21.60;22.10;;;;;;453937;259;1223;-76
2022/03/03 05:42:53;;;;;;;;;;;21.70;22.00;;;;;;454046;261;1398;-76
2022/03/03 05:44:55;;;;;;;;;;;21.80;22.00;;;;;;453973;261;2208;-76
2022/03/03 05:46:56;;;;;;;;;;;21.60;21.90;;;;;;453967;261;1216;-76
2022/03/03 05:48:57;;;;;;;;;;;21.60;22.00;;;;;;453982;261;1079;-76
2022/03/03 05:50:59;;;;;;;;;;;21.60;22.10;;;;;;453925;261;1126;-76
2022/03/03 05:53:01;;;;;;;;;;;21.60;22.10;;;;;;453847;261;1118;-76
2022/03/03 05:55:02;;;;;;;;;;;21.50;22.00;;;;;;453887;261;1331;-76
2022/03/03 05:57:03;;;;;;;;;;;21.60;22.00;;;;;;453804;261;1367;-76
2022/03/03 05:59:04;;;;;;;;;;;21.60;22.10;;;;;;453849;261;1064;-76
2022/03/03 06:01:05;;;;;;;;;;;21.50;22.00;;;;;;453892;261;1395;-75
2022/03/03 06:03:07;;;;;;;;;;;21.60;22.00;;;;;;453903;261;1142;-76
2022/03/03 06:05:08;;;;;;;;;;;21.60;22.00;;;;;;453877;261;2137;-76
2022/03/03 06:07:10;;;;;;;;;;;21.60;22.10;;;;;;453781;261;1186;-76
2022/03/03 06:09:11;;;;;;;;;;;21.60;22.00;;;;;;453788;261;1054;-76
2022/03/03 06:11:12;;;;;;;;;;;21.70;22.00;;;;;;453778;261;1258;-76
2022/03/03 06:13:13;;;;;;;;;;;21.70;21.90;;;;;;453784;261;1290;-76
2022/03/03 06:15:15;;;;;;;;;;;21.80;21.90;;;;;;453815;259;1293;-76
2022/03/03 06:17:16;;;;;;;;;;;21.70;22.00;;;;;;453866;261;1186;-76
2022/03/03 06:19:17;;;;;;;;;;;21.60;22.00;;;;;;453750;261;1215;-75
2022/03/03 06:21:19;;;;;;;;;;;21.60;22.10;;;;;;453761;261;1260;-76
2022/03/03 06:23:20;;;;;;;;;;;21.60;22.00;;;;;;453861;261;1021;-76
2022/03/03 06:25:21;;;;;;;;;;;21.70;22.00;;;;;;453852;261;2200;-76
2022/03/03 06:27:23;;;;;;;;;;;21.60;22.00;;;;;;453755;261;1231;-76
2022/03/03 06:29:24;;;;;;;;;;;21.70;22.00;;;;;;453850;261;1338;-76
2022/03/03 06:31:25;;;;;;;;;;;21.60;22.00;;;;;;453684;261;1330;-76
2022/03/03 06:33:26;;;;;;;;;;;21.60;22.00;;;;;;453803;261;1331;-76
2022/03/03 06:35:28;;;;;;;;;;;21.60;22.00;;;;;;453795;261;1036;-76
2022/03/03 06:37:29;;;;;;;;;;;21.60;22.00;;;;;;453772;261;1292;-75
2022/03/03 06:39:30;;;;;;;;;;;21.70;22.00;;;;;;453724;261;1122;-76
2022/03/03 06:41:32;;;;;;;;;;;21.70;21.90;;;;;;453554;261;1211;-76
2022/03/03 06:43:34;;;;;;;;;;;21.90;21.90;;;;;;453532;261;1082;-76
2022/03/03 06:45:34;;;;;;;;;;;21.80;21.90;;;;;;453497;261;2212;-76
2022/03/03 06:47:36;;;;;;;;;;;21.80;21.90;;;;;;453573;261;1305;-76
2022/03/03 06:49:37;;;;;;;;;;;21.80;21.90;;;;;;453682;261;1222;-75
2022/03/03 06:51:38;;;;;;;;;;;21.60;22.00;;;;;;453775;261;1288;-76
2022/03/03 06:53:41;;;;;;;;;;;21.60;22.10;;;;;;453795;261;1053;-75
2022/03/03 06:55:41;;;;;;;;;;;21.60;22.00;;;;;;453775;261;1485;-75
2022/03/03 06:57:42;;;;;;;;;;;21.60;22.10;;;;;;453776;259;1293;-75
2022/03/03 06:59:44;;;;;;;;;;;21.60;22.10;;;;;;453816;261;1106;-76
2022/03/03 07:01:47;;;;;;;;;;;21.50;22.20;;;;;;453719;261;1364;-76
2022/03/03 07:03:46;;;;;;;;;;;21.50;22.10;;;;;;453689;261;2184;-76
2022/03/03 07:05:48;;;;;;;;;;;21.60;22.20;;;;;;453679;261;1369;-76
2022/03/03 07:07:49;;;;;;;;;;;21.50;22.20;;;;;;453765;261;1071;-76
2022/03/03 07:09:50;;;;;;;;;;;21.70;22.20;;;;;;453705;261;1188;-75
2022/03/03 07:11:52;;;;;;;;;;;21.60;22.20;;;;;;453644;261;1254;-76
2022/03/03 07:13:53;;;;;;;;;;;21.70;22.10;;;;;;453697;261;1076;-75
2022/03/03 07:15:54;;;;;;;;;;;21.80;22.20;;;;;;453603;258;1251;-75
2022/03/03 07:17:56;;;;;;;;;;;21.70;22.20;;;;;;453617;263;1133;-76
2022/03/03 07:19:57;;;;;;;;;;;21.60;22.30;;;;;;453631;261;1068;-76
2022/03/03 07:21:58;;;;;;;;;;;21.60;22.30;;;;;;453568;261;1258;-76
2022/03/03 07:24:00;;;;;;;;;;;21.70;22.30;;;;;;453599;261;2200;-75
2022/03/03 07:26:01;;;;;;;;;;;21.70;22.30;;;;;;453633;261;1272;-75
2022/03/03 07:28:04;;;;;;;;;;;21.70;22.40;;;;;;453528;261;1194;-76
2022/03/03 07:30:05;;;;;;;;;;;21.60;22.40;;;;;;453587;261;1293;-75
2022/03/03 07:32:06;;;;;;;;;;;21.70;22.40;;;;;;453622;261;1413;-76
2022/03/03 07:34:07;;;;;;;;;;;21.70;22.50;;;;;;453567;261;1214;-76
2022/03/03 07:36:08;;;;;;;;;;;21.80;22.40;;;;;;453529;261;1226;-76
2022/03/03 07:38:12;;;;;;;;;;;21.70;22.50;;;;;;453550;261;1140;-76
2022/03/03 07:40:11;;;;;;;;;;;21.80;22.50;;;;;;453314;261;1365;-76
2022/03/03 07:42:12;;;;;;;;;;;21.80;22.50;;;;;;453582;261;1239;-76
2022/03/03 07:44:14;;;;;;;;;;;21.90;22.50;;;;;;453469;261;2137;-76
2022/03/03 07:46:15;;;;;;;;;;;21.90;22.50;;;;;;453287;261;1145;-76
2022/03/03 07:48:16;;;;;;;;;;;21.80;22.60;;;;;;453193;261;1213;-75
2022/03/03 07:50:18;;;;;;;;;;;21.80;22.60;;;;;;453463;261;1144;-76
2022/03/03 07:52:19;;;;;;;;;;;22.10;22.60;;;;;;453391;261;1077;-76
2022/03/03 07:54:20;;;;;;;;;;;22.40;22.40;;;;;;453476;261;1082;-76
2022/03/03 07:56:22;;;;;;;;;;;22.50;22.30;;;;;;453489;258;1190;-75
2022/03/03 07:58:23;;;;;;;;;;;22.70;22.30;;;;;;453497;261;1013;-75
2022/03/03 08:00:24;;;;;;;;;;;22.80;22.20;;;;;;453338;261;1119;-76
2022/03/03 08:02:26;;;;;;;;;;;22.90;22.10;;;;;;453371;261;1113;-75
2022/03/03 08:04:27;;;;;;;;;;;23.10;22.00;;;;;;453255;261;2253;-75
2022/03/03 08:06:28;;;;;;;;;;;23.10;22.00;;;;;;453242;261;1554;-75
2022/03/03 08:08:30;;;;;;;;;;;23.20;22.00;;;;;;453079;261;1055;-75
2022/03/03 08:10:32;;;;;;;;;;;23.20;22.00;;;;;;453200;261;1162;-75
2022/03/03 08:12:32;;;;;;;;;;;23.30;22.10;;;;;;453266;261;1276;-75
2022/03/03 08:14:34;;;;;;;;;;;23.20;22.10;;;;;;453276;261;1090;-76
2022/03/03 08:16:35;;;;;;;;;;;23.20;22.20;;;;;;453392;258;1214;-75
2022/03/03 08:18:37;;;;;;;;;;;23.00;22.30;;;;;;453297;258;1240;-74
2022/03/03 08:20:38;;;;;;;;;;;22.80;22.40;;;;;;453303;261;1133;-74
2022/03/03 08:22:39;;;;;;;;;;;22.70;22.50;;;;;;453250;261;1220;-74
2022/03/03 08:24:43;;;;;;;;;;;22.70;22.70;;;;;;453293;261;2188;-74
2022/03/03 08:26:42;;;;;;;;;;;22.50;22.80;;;;;;453208;261;1440;-74
2022/03/03 08:28:44;;;;;;;;;;;22.50;22.90;;;;;;453307;261;1100;-76
2022/03/03 08:30:45;;;;;;;;;;;22.40;23.00;;;;;;453415;261;1056;-76
2022/03/03 08:32:46;;;;;;;;;;;22.40;23.00;;;;;;453398;261;1187;-76
2022/03/03 08:34:48;;;;;;;;;;;22.40;23.00;;;;;;453300;261;1227;-76
2022/03/03 08:36:49;;;;;;;;;;;22.30;23.10;;;;;;453299;261;1142;-76
2022/03/03 08:38:51;;;;;;;;;;;22.20;23.10;;;;;;453231;261;1062;-76
2022/03/03 08:40:52;;;;;;;;;;;22.30;23.10;;;;;;453223;261;1405;-76
2022/03/03 08:42:56;;;;;;;;;;;22.50;23.00;;;;;;453222;261;1152;-76
2022/03/03 08:44:55;;;;;;;;;;;22.50;23.10;;;;;;453167;261;2416;-76
2022/03/03 08:46:56;;;;;;;;;;;22.60;23.10;;;;;;453334;261;1104;-76
2022/03/03 08:48:58;;;;;;;;;;;22.40;23.20;;;;;;453270;261;1088;-76
2022/03/03 08:50:59;;;;;;;;;;;22.30;23.40;;;;;;453229;261;1460;-76
2022/03/03 08:53:00;;;;;;;;;;;22.20;23.50;;;;;;453073;261;1106;-76
2022/03/03 08:55:01;;;;;;;;;;;22.20;23.50;;;;;;453162;261;1097;-76
2022/03/03 08:57:03;;;;;;;;;;;22.20;23.50;;;;;;453175;261;1116;-76
2022/03/03 08:59:04;;;;;;;;;;;22.20;23.60;;;;;;453296;261;1407;-76
2022/03/03 09:01:05;;;;;;;;;;;22.30;23.50;;;;;;453101;263;1570;-76
2022/03/03 09:03:07;;;;;;;;;;;22.30;23.60;;;;;;453235;261;1193;-76
2022/03/03 09:05:08;;;;;;;;;;;22.30;23.60;;;;;;453158;261;2216;-76
2022/03/03 09:07:09;;;;;;;;;;;22.20;23.60;;;;;;452940;261;1257;-76
2022/03/03 09:09:11;;;;;;;;;;;22.20;23.70;;;;;;452906;261;1101;-76
2022/03/03 09:11:12;;;;;;;;;;;22.20;23.60;;;;;;453129;261;1135;-76
2022/03/03 09:13:13;;;;;;;;;;;22.30;23.70;;;;;;453036;261;1339;-76
2022/03/03 09:15:15;;;;;;;;;;;22.40;23.70;;;;;;453148;261;1202;-76
2022/03/03 09:17:16;;;;;;;;;;;22.30;23.60;;;;;;453185;261;1061;-76
2022/03/03 09:19:17;;;;;;;;;;;22.30;23.60;;;;;;453171;261;1294;-76
2022/03/03 09:21:19;;;;;;;;;;;22.20;23.60;;;;;;453334;261;1157;-76
2022/03/03 09:23:20;;;;;;;;;;;22.30;23.60;;;;;;453290;261;1194;-76
2022/03/03 09:25:21;;;;;;;;;;;22.30;23.60;;;;;;453287;261;2196;-76
2022/03/03 09:27:23;;;;;;;;;;;22.30;23.60;;;;;;453127;261;1111;-76
2022/03/03 09:29:26;;;;;;;;;;;22.30;23.60;;;;;;453254;261;1094;-76
2022/03/03 09:31:26;;;;;;;;;;;22.20;23.60;;;;;;453084;261;1355;-76
2022/03/03 09:33:27;;;;;;;;;;;22.20;23.60;;;;;;453252;261;1090;-76
2022/03/03 09:35:28;;;;;;;;;;;22.20;23.60;;;;;;453204;261;1232;-76
2022/03/03 09:37:30;;;;;;;;;;;22.20;23.60;;;;;;453098;261;1184;-76
2022/03/03 09:39:31;;;;;;;;;;;22.10;23.60;;;;;;453272;261;1180;-77
2022/03/03 09:41:32;;;;;;;;;;;22.10;23.60;;;;;;453149;261;1543;-76
2022/03/03 09:43:34;;;;;;;;;;;22.10;23.60;;;;;;453146;261;1111;-76
2022/03/03 09:45:35;;;;;;;;;;;22.10;23.60;;;;;;453148;258;2142;-76
2022/03/03 09:47:37;;;;;;;;;;;22.00;23.70;;;;;;453066;261;1141;-76
2022/03/03 09:49:38;;;;;;;;;;;21.90;23.70;;;;;;453195;261;1094;-76
2022/03/03 09:51:39;;;;;;;;;;;22.00;23.70;;;;;;453276;261;1295;-76
2022/03/03 09:53:40;;;;;;;;;;;22.00;23.70;;;;;;453345;261;1179;-76
2022/03/03 09:55:42;;;;;;;;;;;21.90;23.80;;;;;;453168;261;1472;-76
2022/03/03 09:57:43;;;;;;;;;;;21.90;23.70;;;;;;453142;261;1262;-76
2022/03/03 09:59:44;;;;;;;;;;;21.90;23.70;;;;;;453273;261;1095;-76
2022/03/03 10:01:46;;;;;;;;;;;22.00;23.70;;;;;;453297;261;1460;-76
2022/03/03 10:03:47;;;;;;;;;;;21.90;23.70;;;;;;453413;261;1057;-76
2022/03/03 10:05:48;;;;;;;;;;;21.80;23.80;;;;;;453581;261;2208;-76
2022/03/03 10:07:50;;;;;;;;;;;21.90;23.80;;;;;;453706;261;1057;-76
2022/03/03 10:10:00;;;;;;;;;;;21.80;23.80;;;;;;453187;261;1469;-76
2022/03/03 10:12:01;;;;;;;;;;;21.80;23.80;;;;;;453179;261;1187;-76
2022/03/03 10:14:03;;;;;;;;;;;21.80;23.90;;;;;;453214;261;1143;-76
2022/03/03 10:16:04;;;;;;;;;;;21.80;23.90;;;;;;453245;261;1413;-76
2022/03/03 10:18:05;;;;;;;;;;;21.70;23.90;;;;;;453253;261;1305;-76
2022/03/03 10:20:07;;;;;;;;;;;21.70;23.90;;;;;;453096;261;1090;-76
2022/03/03 10:22:08;;;;;;;;;;;21.60;23.90;;;;;;453095;261;1230;-76
2022/03/03 10:24:09;;;;;;;;;;;21.60;23.90;;;;;;453044;261;1164;-76
2022/03/03 10:26:10;;;;;;;;;;;21.60;23.90;;;;;;453268;261;2212;-75
2022/03/03 10:28:12;;;;;;;;;;;21.60;23.90;;;;;;453162;261;1176;-76
2022/03/03 10:30:13;;;;;;;;;;;21.50;24.00;;;;;;453185;261;1074;-76
2022/03/03 10:32:15;;;;;;;;;;;21.50;24.00;;;;;;453044;261;1227;-76
2022/03/03 10:34:16;;;;;;;;;;;21.60;24.00;;;;;;453160;261;1122;-76
2022/03/03 10:36:18;;;;;;;;;;;21.50;24.00;;;;;;453267;261;1294;-76
2022/03/03 10:38:19;;;;;;;;;;;21.50;23.90;;;;;;453418;261;1365;-76
2022/03/03 10:40:20;;;;;;;;;;;21.50;24.00;;;;;;453297;261;1086;-76
2022/03/03 10:42:21;;;;;;;;;;;21.50;23.90;;;;;;453243;261;1129;-76
2022/03/03 10:44:23;;;;;;;;;;;21.50;23.90;;;;;;453140;261;1162;-76
2022/03/03 10:46:24;;;;;;;;;;;21.50;23.80;;;;;;453021;261;2192;-76
2022/03/03 10:48:25;;;;;;;;;;;21.50;23.80;;;;;;453182;261;1115;-76
2022/03/03 10:50:26;;;;;;;;;;;21.50;23.80;;;;;;453200;261;1118;-76
2022/03/03 10:52:28;;;;;;;;;;;21.60;23.80;;;;;;453200;261;1133;-76
2022/03/03 10:54:29;;;;;;;;;;;21.60;23.80;;;;;;453345;261;1197;-76
2022/03/03 10:56:30;;;;;;;;;;;21.80;23.60;;;;;;453193;261;1110;-76
2022/03/03 10:58:32;;;;;;;;;;;22.00;23.50;;;;;;453295;261;1073;-76
2022/03/03 11:00:35;;;;;;;;;;;22.10;23.40;;;;;;453216;261;1120;-76
2022/03/03 11:02:35;;;;;;;;;;;22.30;23.20;;;;;;453007;261;1358;-76
2022/03/03 11:04:36;;;;;;;;;;;22.40;23.10;;;;;;453076;261;1078;-76
2022/03/03 11:06:38;;;;;;;;;;;22.70;23.00;;;;;;453004;261;2189;-76
2022/03/03 11:08:39;;;;;;;;;;;22.70;22.80;;;;;;453101;261;1093;-76
2022/03/03 11:10:40;;;;;;;;;;;22.80;22.60;;;;;;453154;261;1165;-76
2022/03/03 11:12:42;;;;;;;;;;;22.80;22.60;;;;;;453115;261;1110;-76
2022/03/03 11:14:43;;;;;;;;;;;22.80;22.60;;;;;;453192;261;1146;-76
2022/03/03 11:16:45;;;;;;;;;;;22.80;22.60;;;;;;453306;261;1497;-76
2022/03/03 11:18:46;;;;;;;;;;;22.80;22.60;;;;;;453286;261;1065;-76
2022/03/03 11:20:48;;;;;;;;;;;22.70;22.60;;;;;;453269;261;1121;-76
2022/03/03 11:22:49;;;;;;;;;;;22.50;22.70;;;;;;453172;261;1232;-76
2022/03/03 11:24:50;;;;;;;;;;;22.30;22.70;;;;;;453285;263;1058;-76
2022/03/03 11:26:51;;;;;;;;;;;22.30;22.80;;;;;;453172;261;2200;-76
2022/03/03 11:28:53;;;;;;;;;;;22.10;22.70;;;;;;453338;261;1074;-76
2022/03/03 11:30:56;;;;;;;;;;;22.00;22.80;;;;;;453159;261;1213;-76
2022/03/03 11:32:55;;;;;;;;;;;21.90;22.80;;;;;;453133;261;1303;-75
2022/03/03 11:34:57;;;;;;;;;;;21.80;22.80;;;;;;453224;261;1102;-76
2022/03/03 11:36:58;;;;;;;;;;;21.80;22.80;;;;;;453188;261;1390;-76
2022/03/03 11:38:59;;;;;;;;;;;21.80;22.80;;;;;;453356;261;1104;-76
2022/03/03 11:41:01;;;;;;;;;;;21.90;22.70;;;;;;453301;261;1317;-76
2022/03/03 11:43:02;;;;;;;;;;;21.90;22.60;;;;;;453320;261;1141;-76
2022/03/03 11:45:03;;;;;;;;;;;22.00;22.60;;;;;;453226;261;1052;-76
2022/03/03 11:47:05;;;;;;;;;;;21.90;22.60;;;;;;453322;261;2150;-76
2022/03/03 11:49:06;;;;;;;;;;;21.90;22.70;;;;;;453371;261;1101;-75
2022/03/03 11:51:07;;;;;;;;;;;21.80;22.60;;;;;;453307;261;1131;-75
2022/03/03 11:53:09;;;;;;;;;;;21.90;22.60;;;;;;453254;261;1115;-75
2022/03/03 11:55:10;;;;;;;;;;;21.80;22.50;;;;;;453428;261;1065;-75
2022/03/03 11:57:11;;;;;;;;;;;21.80;22.50;;;;;;453211;261;1189;-75
2022/03/03 11:59:13;;;;;;;;;;;21.80;22.40;;;;;;453463;261;1244;-75